createdAt,value
2018-01-26T00:00:51.968Z,1006.28
2018-01-26T00:01:51.972Z,1006.29
2018-01-26T00:02:51.947Z,1006.25
2018-01-26T00:03:51.950Z,1006.30
2018-01-26T00:04:51.927Z,1006.28
2018-01-26T00:05:51.927Z,1006.24
2018-01-26T00:06:51.906Z,1006.23
2018-01-26T00:07:51.912Z,1006.28
2018-01-26T00:08:51.898Z,1006.25
2018-01-26T00:09:51.896Z,1006.27
2018-01-26T00:10:51.891Z,1006.27
2018-01-26T00:11:51.859Z,1006.31
2018-01-26T00:12:51.846Z,1006.27
2018-01-26T00:13:51.844Z,1006.30
2018-01-26T00:14:51.831Z,1006.28
2018-01-26T00:15:51.826Z,1006.29
2018-01-26T00:16:51.817Z,1006.32
2018-01-26T00:17:51.800Z,1006.27
2018-01-26T00:18:51.797Z,1006.30
2018-01-26T00:19:51.779Z,1006.33
2018-01-26T00:20:51.766Z,1006.33
2018-01-26T00:21:51.754Z,1006.34
2018-01-26T00:22:51.768Z,1006.32
2018-01-26T00:23:51.782Z,1006.30
2018-01-26T00:24:51.731Z,1006.29
2018-01-26T00:25:51.719Z,1006.23
2018-01-26T00:26:51.717Z,1006.27
2018-01-26T00:27:51.704Z,1006.26
2018-01-26T00:28:51.691Z,1006.30
2018-01-26T00:29:51.688Z,1006.31
2018-01-26T00:30:51.673Z,1006.36
2018-01-26T00:31:51.664Z,1006.38
2018-01-26T00:32:51.651Z,1006.34
2018-01-26T00:33:51.657Z,1006.36
2018-01-26T00:34:51.644Z,1006.36
2018-01-26T00:35:51.630Z,1006.39
2018-01-26T00:36:51.612Z,1006.37
2018-01-26T00:37:51.604Z,1006.37
2018-01-26T00:38:51.615Z,1006.39
2018-01-26T00:39:51.589Z,1006.40
2018-01-26T00:40:51.568Z,1006.33
2018-01-26T00:41:51.582Z,1006.32
2018-01-26T00:42:51.569Z,1006.34
2018-01-26T00:43:51.546Z,1006.34
2018-01-26T00:44:51.548Z,1006.35
2018-01-26T00:45:51.545Z,1006.39
2018-01-26T00:46:51.512Z,1006.43
2018-01-26T00:47:51.507Z,1006.40
2018-01-26T00:48:51.488Z,1006.41
2018-01-26T00:49:51.478Z,1006.40
2018-01-26T00:50:51.474Z,1006.37
2018-01-26T00:51:51.472Z,1006.37
2018-01-26T00:52:51.464Z,1006.36
2018-01-26T00:53:51.446Z,1006.39
2018-01-26T00:54:51.433Z,1006.37
2018-01-26T00:55:51.420Z,1006.38
2018-01-26T00:56:51.407Z,1006.38
2018-01-26T00:57:51.409Z,1006.43
2018-01-26T00:58:51.411Z,1006.36
2018-01-26T00:59:51.383Z,1006.38
2018-01-26T01:00:51.371Z,1006.38
2018-01-26T01:01:51.362Z,1006.37
2018-01-26T01:02:51.370Z,1006.34
2018-01-26T01:03:51.348Z,1006.35
2018-01-26T01:04:51.332Z,1006.39
2018-01-26T01:05:51.324Z,1006.35
2018-01-26T01:06:51.315Z,1006.33
2018-01-26T01:07:51.302Z,1006.32
2018-01-26T01:08:51.380Z,1006.32
2018-01-26T01:09:51.284Z,1006.31
2018-01-26T01:10:51.278Z,1006.32
2018-01-26T01:11:51.271Z,1006.31
2018-01-26T01:12:51.275Z,1006.35
2018-01-26T01:13:51.247Z,1006.38
2018-01-26T01:14:51.247Z,1006.39
2018-01-26T01:15:51.221Z,1006.39
2018-01-26T01:16:51.211Z,1006.41
2018-01-26T01:17:51.205Z,1006.45
2018-01-26T01:18:51.195Z,1006.43
2018-01-26T01:19:51.186Z,1006.46
2018-01-26T01:20:51.189Z,1006.44
2018-01-26T01:21:51.161Z,1006.46
2018-01-26T01:22:51.152Z,1006.42
2018-01-26T01:23:51.146Z,1006.41
2018-01-26T01:24:51.143Z,1006.41
2018-01-26T01:25:51.126Z,1006.43
2018-01-26T01:26:51.130Z,1006.42
2018-01-26T01:27:51.109Z,1006.45
2018-01-26T01:28:51.113Z,1006.50
2018-01-26T01:29:51.088Z,1006.49
2018-01-26T01:30:51.079Z,1006.44
2018-01-26T01:31:51.065Z,1006.50
2018-01-26T01:32:51.076Z,1006.51
2018-01-26T01:33:51.083Z,1006.50
2018-01-26T01:34:51.036Z,1006.49
2018-01-26T01:35:51.025Z,1006.47
2018-01-26T01:36:51.020Z,1006.44
2018-01-26T01:37:51.005Z,1006.44
2018-01-26T01:38:51.054Z,1006.40
2018-01-26T01:39:51.001Z,1006.45
2018-01-26T01:40:50.992Z,1006.46
2018-01-26T01:41:50.970Z,1006.47
2018-01-26T01:42:50.954Z,1006.47
2018-01-26T01:43:50.947Z,1006.49
2018-01-26T01:44:50.940Z,1006.50
2018-01-26T01:45:50.929Z,1006.57
2018-01-26T01:46:50.930Z,1006.52
2018-01-26T01:47:50.913Z,1006.55
2018-01-26T01:48:50.921Z,1006.54
2018-01-26T01:49:50.891Z,1006.55
2018-01-26T01:50:50.878Z,1006.53
2018-01-26T01:51:50.888Z,1006.56
2018-01-26T01:52:50.862Z,1006.61
2018-01-26T01:53:50.856Z,1006.63
2018-01-26T01:54:50.853Z,1006.60
2018-01-26T01:55:50.828Z,1006.53
2018-01-26T01:56:50.834Z,1006.54
2018-01-26T01:57:50.807Z,1006.50
2018-01-26T01:58:50.803Z,1006.47
2018-01-26T01:59:50.788Z,1006.43
2018-01-26T02:00:50.795Z,1006.40
2018-01-26T02:01:50.785Z,1006.43
2018-01-26T02:02:50.759Z,1006.42
2018-01-26T02:03:50.753Z,1006.41
2018-01-26T02:04:50.742Z,1006.43
2018-01-26T02:05:50.733Z,1006.43
2018-01-26T02:06:50.724Z,1006.39
2018-01-26T02:07:50.731Z,1006.44
2018-01-26T02:08:50.706Z,1006.43
2018-01-26T02:09:50.696Z,1006.43
2018-01-26T02:10:50.681Z,1006.42
2018-01-26T02:11:50.673Z,1006.38
2018-01-26T02:12:50.666Z,1006.37
2018-01-26T02:13:50.676Z,1006.33
2018-01-26T02:14:50.695Z,1006.33
2018-01-26T02:15:50.639Z,1006.32
2018-01-26T02:16:50.626Z,1006.39
2018-01-26T02:17:50.612Z,1006.38
2018-01-26T02:18:50.602Z,1006.41
2018-01-26T02:19:50.610Z,1006.41
2018-01-26T02:20:50.601Z,1006.41
2018-01-26T02:21:50.575Z,1006.41
2018-01-26T02:22:50.579Z,1006.41
2018-01-26T02:23:50.557Z,1006.46
2018-01-26T02:24:50.548Z,1006.50
2018-01-26T02:25:50.540Z,1006.47
2018-01-26T02:26:50.531Z,1006.47
2018-01-26T02:27:50.522Z,1006.46
2018-01-26T02:28:50.508Z,1006.47
2018-01-26T02:29:50.497Z,1006.49
2018-01-26T02:30:50.484Z,1006.52
2018-01-26T02:31:50.478Z,1006.53
2018-01-26T02:32:50.478Z,1006.52
2018-01-26T02:33:50.510Z,1006.51
2018-01-26T02:34:50.458Z,1006.52
2018-01-26T02:35:50.437Z,1006.52
2018-01-26T02:36:50.427Z,1006.53
2018-01-26T02:37:50.424Z,1006.58
2018-01-26T02:38:50.410Z,1006.56
2018-01-26T02:39:50.402Z,1006.58
2018-01-26T02:40:50.399Z,1006.55
2018-01-26T02:41:50.379Z,1006.55
2018-01-26T02:42:50.372Z,1006.58
2018-01-26T02:43:50.359Z,1006.57
2018-01-26T02:44:50.349Z,1006.63
2018-01-26T02:45:50.342Z,1006.63
2018-01-26T02:46:50.356Z,1006.62
2018-01-26T02:47:50.324Z,1006.67
2018-01-26T02:48:50.310Z,1006.67
2018-01-26T02:49:50.303Z,1006.66
2018-01-26T02:50:50.286Z,1006.66
2018-01-26T02:51:50.281Z,1006.72
2018-01-26T02:52:50.280Z,1006.70
2018-01-26T02:53:50.262Z,1006.76
2018-01-26T02:54:50.260Z,1006.77
2018-01-26T02:55:50.239Z,1006.72
2018-01-26T02:56:50.261Z,1006.72
2018-01-26T02:57:50.222Z,1006.72
2018-01-26T02:58:50.212Z,1006.69
2018-01-26T02:59:50.198Z,1006.70
2018-01-26T03:00:50.262Z,1006.70
2018-01-26T03:01:50.187Z,1006.71
2018-01-26T03:02:50.174Z,1006.69
2018-01-26T03:03:50.157Z,1006.71
2018-01-26T03:04:50.149Z,1006.72
2018-01-26T03:05:50.143Z,1006.75
2018-01-26T03:06:50.130Z,1006.74
2018-01-26T03:07:50.127Z,1006.80
2018-01-26T03:08:50.112Z,1006.80
2018-01-26T03:09:50.110Z,1006.80
2018-01-26T03:10:50.088Z,1006.80
2018-01-26T03:11:50.081Z,1006.81
2018-01-26T03:12:50.071Z,1006.76
2018-01-26T03:13:50.080Z,1006.76
2018-01-26T03:14:50.057Z,1006.74
2018-01-26T03:15:50.047Z,1006.75
2018-01-26T03:16:50.049Z,1006.77
2018-01-26T03:17:50.022Z,1006.76
2018-01-26T03:18:50.026Z,1006.80
2018-01-26T03:19:50.010Z,1006.84
2018-01-26T03:20:49.997Z,1006.84
2018-01-26T03:21:49.987Z,1006.84
2018-01-26T03:22:49.977Z,1006.87
2018-01-26T03:23:49.965Z,1006.85
2018-01-26T03:24:49.959Z,1006.87
2018-01-26T03:25:49.948Z,1006.84
2018-01-26T03:26:49.936Z,1006.89
2018-01-26T03:27:49.946Z,1006.90
2018-01-26T03:28:49.923Z,1006.88
2018-01-26T03:29:49.908Z,1006.84
2018-01-26T03:30:49.931Z,1006.84
2018-01-26T03:31:49.891Z,1006.84
2018-01-26T03:32:49.878Z,1006.82
2018-01-26T03:33:49.865Z,1006.85
2018-01-26T03:34:49.880Z,1006.84
2018-01-26T03:35:49.851Z,1006.87
2018-01-26T03:36:49.858Z,1006.86
2018-01-26T03:37:49.855Z,1006.86
2018-01-26T03:38:49.827Z,1006.87
2018-01-26T03:39:49.814Z,1006.87
2018-01-26T03:40:49.819Z,1006.86
2018-01-26T03:41:49.797Z,1006.86
2018-01-26T03:42:49.792Z,1006.87
2018-01-26T03:43:49.788Z,1006.84
2018-01-26T03:44:49.781Z,1006.89
2018-01-26T03:45:49.748Z,1006.90
2018-01-26T03:46:49.742Z,1006.89
2018-01-26T03:47:49.733Z,1006.82
2018-01-26T03:48:49.740Z,1006.86
2018-01-26T03:49:49.744Z,1006.84
2018-01-26T03:50:49.733Z,1006.83
2018-01-26T03:51:49.690Z,1006.84
2018-01-26T03:52:49.687Z,1006.85
2018-01-26T03:53:49.675Z,1006.87
2018-01-26T03:54:49.662Z,1006.78
2018-01-26T03:55:49.674Z,1006.75
2018-01-26T03:56:49.656Z,1006.72
2018-01-26T03:57:49.666Z,1006.70
2018-01-26T03:58:49.627Z,1006.74
2018-01-26T03:59:49.616Z,1006.74
2018-01-26T04:00:49.602Z,1006.76
2018-01-26T04:01:49.599Z,1006.81
2018-01-26T04:02:49.608Z,1006.78
2018-01-26T04:03:49.582Z,1006.74
2018-01-26T04:04:49.572Z,1006.76
2018-01-26T04:05:49.555Z,1006.75
2018-01-26T04:06:49.562Z,1006.78
2018-01-26T04:07:49.537Z,1006.81
2018-01-26T04:08:49.548Z,1006.84
2018-01-26T04:09:49.518Z,1006.86
2018-01-26T04:10:49.522Z,1006.90
2018-01-26T04:11:49.512Z,1006.90
2018-01-26T04:12:49.493Z,1006.94
2018-01-26T04:13:49.480Z,1006.93
2018-01-26T04:14:49.473Z,1006.92
2018-01-26T04:15:49.480Z,1006.97
2018-01-26T04:16:49.454Z,1006.96
2018-01-26T04:17:49.440Z,1006.98
2018-01-26T04:18:49.441Z,1006.99
2018-01-26T04:19:49.441Z,1007.01
2018-01-26T04:20:49.409Z,1006.97
2018-01-26T04:21:49.440Z,1007.02
2018-01-26T04:22:49.396Z,1007.00
2018-01-26T04:23:49.386Z,1006.99
2018-01-26T04:24:49.378Z,1006.98
2018-01-26T04:25:49.369Z,1007.00
2018-01-26T04:26:49.354Z,1007.06
2018-01-26T04:27:49.344Z,1007.02
2018-01-26T04:28:49.345Z,1007.05
2018-01-26T04:29:49.339Z,1007.08
2018-01-26T04:30:49.320Z,1007.07
2018-01-26T04:31:49.319Z,1007.10
2018-01-26T04:32:49.309Z,1007.09
2018-01-26T04:33:49.290Z,1007.18
2018-01-26T04:34:49.278Z,1007.19
2018-01-26T04:35:49.271Z,1007.20
2018-01-26T04:36:49.264Z,1007.23
2018-01-26T04:37:49.248Z,1007.23
2018-01-26T04:38:49.260Z,1007.22
2018-01-26T04:39:49.236Z,1007.24
2018-01-26T04:42:23.415Z,1007.28
2018-01-26T04:43:22.870Z,1007.30
2018-01-26T04:45:16.651Z,1007.27
2018-01-26T04:46:16.613Z,1007.25
2018-01-26T04:48:10.206Z,1007.28
2018-01-26T04:49:10.190Z,1007.29
2018-01-26T04:51:03.805Z,1007.31
2018-01-26T04:52:03.760Z,1007.34
2018-01-26T04:53:57.379Z,1007.38
2018-01-26T04:54:57.361Z,1007.39
2018-01-26T04:56:50.981Z,1007.43
2018-01-26T04:57:50.947Z,1007.44
2018-01-26T04:59:44.591Z,1007.42
2018-01-26T05:00:44.547Z,1007.40
2018-01-26T05:02:38.206Z,1007.43
2018-01-26T05:03:38.189Z,1007.45
2018-01-26T05:05:31.952Z,1007.45
2018-01-26T05:06:31.909Z,1007.45
2018-01-26T05:08:25.507Z,1007.43
2018-01-26T05:09:25.494Z,1007.49
2018-01-26T05:11:19.194Z,1007.53
2018-01-26T05:12:19.152Z,1007.52
2018-01-26T05:14:12.756Z,1007.55
2018-01-26T05:15:12.746Z,1007.50
2018-01-26T05:17:06.406Z,1007.60
2018-01-26T05:18:06.360Z,1007.60
2018-01-26T05:19:59.936Z,1007.61
2018-01-26T05:20:59.922Z,1007.66
2018-01-26T05:22:53.728Z,1007.68
2018-01-26T05:23:53.691Z,1007.70
2018-01-26T05:25:47.729Z,1007.68
2018-01-26T05:26:47.297Z,1007.71
2018-01-26T05:28:41.020Z,1007.70
2018-01-26T05:29:40.975Z,1007.71
2018-01-26T05:31:34.567Z,1007.72
2018-01-26T05:32:34.518Z,1007.75
2018-01-26T05:34:28.157Z,1007.79
2018-01-26T05:35:28.140Z,1007.79
2018-01-26T05:37:22.086Z,1007.88
2018-01-26T05:38:22.052Z,1007.89
2018-01-26T05:40:15.831Z,1007.92
2018-01-26T05:41:15.781Z,1007.88
2018-01-26T05:43:09.519Z,1007.83
2018-01-26T05:44:09.479Z,1007.81
2018-01-26T05:46:03.163Z,1007.89
2018-01-26T05:47:03.147Z,1007.86
2018-01-26T05:48:56.843Z,1007.93
2018-01-26T05:49:56.827Z,1007.97
2018-01-26T05:51:51.162Z,1008.00
2018-01-26T05:52:51.159Z,1007.98
2018-01-26T05:53:51.169Z,1008.00
2018-01-26T05:54:51.137Z,1007.95
2018-01-26T05:55:51.132Z,1007.99
2018-01-26T05:56:51.119Z,1007.98
2018-01-26T05:57:51.109Z,1007.99
2018-01-26T05:58:51.096Z,1007.99
2018-01-26T05:59:51.091Z,1008.01
2018-01-26T06:00:51.076Z,1007.97
2018-01-26T06:01:51.071Z,1007.97
2018-01-26T06:02:51.061Z,1008.03
2018-01-26T06:03:51.052Z,1008.04
2018-01-26T06:04:51.038Z,1008.00
2018-01-26T06:05:51.035Z,1007.98
2018-01-26T06:06:51.028Z,1007.95
2018-01-26T06:07:51.034Z,1007.95
2018-01-26T06:08:51.008Z,1007.92
2018-01-26T06:09:50.996Z,1007.93
2018-01-26T06:10:50.982Z,1007.92
2018-01-26T06:11:51.021Z,1007.95
2018-01-26T06:12:50.964Z,1007.97
2018-01-26T06:13:50.955Z,1008.01
2018-01-26T06:14:50.954Z,1008.01
2018-01-26T06:15:50.939Z,1008.03
2018-01-26T06:16:50.923Z,1008.02
2018-01-26T06:17:50.920Z,1008.00
2018-01-26T06:18:50.909Z,1008.01
2018-01-26T06:19:50.898Z,1008.00
2018-01-26T06:20:50.896Z,1008.00
2018-01-26T06:21:50.880Z,1008.02
2018-01-26T06:22:50.869Z,1008.04
2018-01-26T06:23:50.893Z,1008.04
2018-01-26T06:24:50.852Z,1008.06
2018-01-26T06:25:50.842Z,1008.04
2018-01-26T06:26:50.836Z,1008.08
2018-01-26T06:27:50.827Z,1008.08
2018-01-26T06:28:50.808Z,1008.07
2018-01-26T06:29:50.801Z,1008.07
2018-01-26T06:30:50.791Z,1008.08
2018-01-26T06:31:50.786Z,1008.14
2018-01-26T06:32:50.781Z,1008.16
2018-01-26T06:33:50.764Z,1008.20
2018-01-26T06:34:50.754Z,1008.25
2018-01-26T06:35:50.747Z,1008.26
2018-01-26T06:36:50.735Z,1008.30
2018-01-26T06:37:50.726Z,1008.31
2018-01-26T06:38:50.719Z,1008.30
2018-01-26T06:39:50.713Z,1008.34
2018-01-26T06:40:50.698Z,1008.34
2018-01-26T06:41:50.690Z,1008.39
2018-01-26T06:42:50.676Z,1008.41
2018-01-26T06:43:50.668Z,1008.44
2018-01-26T06:44:50.676Z,1008.45
2018-01-26T06:45:50.651Z,1008.49
2018-01-26T06:46:50.640Z,1008.50
2018-01-26T06:47:50.631Z,1008.54
2018-01-26T06:48:50.618Z,1008.53
2018-01-26T06:49:50.615Z,1008.54
2018-01-26T06:50:50.601Z,1008.55
2018-01-26T06:51:50.594Z,1008.54
2018-01-26T06:52:50.584Z,1008.53
2018-01-26T06:53:50.570Z,1008.49
2018-01-26T06:54:50.562Z,1008.51
2018-01-26T06:55:50.558Z,1008.47
2018-01-26T06:56:50.547Z,1008.49
2018-01-26T06:57:50.534Z,1008.49
2018-01-26T06:58:50.528Z,1008.51
2018-01-26T06:59:50.517Z,1008.49
2018-01-26T07:00:50.538Z,1008.47
2018-01-26T07:01:50.497Z,1008.48
2018-01-26T07:02:50.491Z,1008.43
2018-01-26T07:03:50.479Z,1008.47
2018-01-26T07:04:50.465Z,1008.41
2018-01-26T07:05:50.459Z,1008.47
2018-01-26T07:06:50.452Z,1008.48
2018-01-26T07:07:50.442Z,1008.48
2018-01-26T07:08:50.428Z,1008.55
2018-01-26T07:09:50.421Z,1008.58
2018-01-26T07:10:50.424Z,1008.63
2018-01-26T07:11:50.399Z,1008.65
2018-01-26T07:12:50.396Z,1008.69
2018-01-26T07:13:50.381Z,1008.68
2018-01-26T07:14:50.376Z,1008.73
2018-01-26T07:15:50.363Z,1008.75
2018-01-26T07:16:50.359Z,1008.77
2018-01-26T07:17:50.347Z,1008.74
2018-01-26T07:18:50.333Z,1008.75
2018-01-26T07:19:50.338Z,1008.79
2018-01-26T07:20:50.316Z,1008.85
2018-01-26T07:21:50.309Z,1008.83
2018-01-26T07:22:50.303Z,1008.87
2018-01-26T07:23:50.290Z,1008.91
2018-01-26T07:24:50.278Z,1008.97
2018-01-26T07:25:50.276Z,1008.98
2018-01-26T07:26:50.279Z,1008.97
2018-01-26T07:27:50.288Z,1008.98
2018-01-26T07:28:50.283Z,1009.03
2018-01-26T07:29:50.236Z,1009.00
2018-01-26T07:30:50.220Z,1009.02
2018-01-26T07:31:50.211Z,1009.04
2018-01-26T07:32:50.204Z,1009.00
2018-01-26T07:33:50.190Z,1009.00
2018-01-26T07:34:50.184Z,1009.02
2018-01-26T07:35:50.175Z,1009.03
2018-01-26T07:36:50.165Z,1009.03
2018-01-26T07:37:50.155Z,1009.08
2018-01-26T07:38:50.144Z,1009.08
2018-01-26T07:39:50.133Z,1009.10
2018-01-26T07:40:50.120Z,1009.12
2018-01-26T07:41:50.119Z,1009.18
2018-01-26T07:42:50.108Z,1009.20
2018-01-26T07:43:50.159Z,1009.27
2018-01-26T07:44:50.094Z,1009.27
2018-01-26T07:45:50.078Z,1009.31
2018-01-26T07:46:50.070Z,1009.32
2018-01-26T07:47:50.055Z,1009.36
2018-01-26T07:48:50.044Z,1009.37
2018-01-26T07:49:50.045Z,1009.41
2018-01-26T07:50:50.040Z,1009.43
2018-01-26T07:51:50.019Z,1009.41
2018-01-26T07:52:50.012Z,1009.44
2018-01-26T07:53:50.004Z,1009.46
2018-01-26T07:54:49.995Z,1009.45
2018-01-26T07:55:49.983Z,1009.45
2018-01-26T07:56:49.994Z,1009.50
2018-01-26T07:57:49.981Z,1009.51
2018-01-26T07:58:49.979Z,1009.52
2018-01-26T07:59:49.958Z,1009.54
2018-01-26T08:00:49.932Z,1009.58
2018-01-26T08:01:49.927Z,1009.51
2018-01-26T08:02:49.913Z,1009.53
2018-01-26T08:03:49.909Z,1009.53
2018-01-26T08:04:49.896Z,1009.54
2018-01-26T08:05:49.889Z,1009.62
2018-01-26T08:06:49.877Z,1009.63
2018-01-26T08:07:49.870Z,1009.69
2018-01-26T08:08:49.859Z,1009.73
2018-01-26T08:09:49.844Z,1009.70
2018-01-26T08:10:49.840Z,1009.66
2018-01-26T08:11:49.831Z,1009.63
2018-01-26T08:12:49.821Z,1009.61
2018-01-26T08:13:49.811Z,1009.59
2018-01-26T08:14:49.801Z,1009.66
2018-01-26T08:15:49.794Z,1009.65
2018-01-26T08:16:49.779Z,1009.70
2018-01-26T08:17:49.775Z,1009.76
2018-01-26T08:18:49.762Z,1009.79
2018-01-26T08:19:49.752Z,1009.83
2018-01-26T08:20:49.740Z,1009.84
2018-01-26T08:21:49.736Z,1009.83
2018-01-26T08:22:49.725Z,1009.85
2018-01-26T08:23:49.713Z,1009.83
2018-01-26T08:24:49.709Z,1009.80
2018-01-26T08:25:49.696Z,1009.82
2018-01-26T08:26:49.686Z,1009.87
2018-01-26T08:27:49.681Z,1009.87
2018-01-26T08:28:49.667Z,1009.88
2018-01-26T08:29:49.659Z,1009.87
2018-01-26T08:30:49.646Z,1009.81
2018-01-26T08:31:49.658Z,1009.81
2018-01-26T08:32:49.630Z,1009.82
2018-01-26T08:33:49.639Z,1009.79
2018-01-26T08:34:49.608Z,1009.74
2018-01-26T08:35:49.603Z,1009.77
2018-01-26T08:36:49.589Z,1009.77
2018-01-26T08:37:49.577Z,1009.70
2018-01-26T08:38:49.571Z,1009.67
2018-01-26T08:39:49.572Z,1009.73
2018-01-26T08:40:49.552Z,1009.74
2018-01-26T08:41:49.543Z,1009.78
2018-01-26T08:42:49.536Z,1009.84
2018-01-26T08:43:49.523Z,1009.84
2018-01-26T08:44:49.517Z,1009.89
2018-01-26T08:45:49.502Z,1009.86
2018-01-26T08:46:49.496Z,1009.89
2018-01-26T08:47:49.486Z,1009.88
2018-01-26T08:48:49.475Z,1009.95
2018-01-26T08:49:49.468Z,1009.96
2018-01-26T08:50:49.458Z,1009.98
2018-01-26T08:51:49.447Z,1010.02
2018-01-26T08:52:49.437Z,1010.00
2018-01-26T08:53:49.427Z,1010.06
2018-01-26T08:54:49.420Z,1010.06
2018-01-26T08:55:49.410Z,1010.04
2018-01-26T08:56:49.401Z,1010.01
2018-01-26T08:57:49.393Z,1010.03
2018-01-26T08:58:49.385Z,1010.01
2018-01-26T08:59:49.370Z,1010.01
2018-01-26T09:00:49.366Z,1010.03
2018-01-26T09:01:49.352Z,1010.05
2018-01-26T09:02:49.348Z,1010.02
2018-01-26T09:03:49.338Z,1010.05
2018-01-26T09:04:49.326Z,1010.04
2018-01-26T09:05:49.319Z,1010.06
2018-01-26T09:06:49.306Z,1010.09
2018-01-26T09:07:49.293Z,1010.07
2018-01-26T09:08:49.289Z,1010.04
2018-01-26T09:09:49.279Z,1010.08
2018-01-26T09:10:49.269Z,1010.07
2018-01-26T09:11:49.278Z,1010.12
2018-01-26T09:12:49.274Z,1010.15
2018-01-26T09:13:49.264Z,1010.16
2018-01-26T09:14:49.231Z,1010.16
2018-01-26T09:15:49.232Z,1010.18
2018-01-26T09:16:49.213Z,1010.14
2018-01-26T09:17:49.205Z,1010.08
2018-01-26T09:18:49.195Z,1010.07
2018-01-26T09:19:49.190Z,1010.12
2018-01-26T09:20:49.174Z,1010.14
2018-01-26T09:21:49.168Z,1010.21
2018-01-26T09:22:49.162Z,1010.23
2018-01-26T09:23:49.153Z,1010.19
2018-01-26T09:24:49.139Z,1010.23
2018-01-26T09:25:49.132Z,1010.27
2018-01-26T09:26:49.121Z,1010.31
2018-01-26T09:27:49.110Z,1010.29
2018-01-26T09:28:49.107Z,1010.27
2018-01-26T09:29:49.093Z,1010.32
2018-01-26T09:30:49.087Z,1010.31
2018-01-26T09:31:49.075Z,1010.37
2018-01-26T09:32:49.065Z,1010.36
2018-01-26T09:33:49.053Z,1010.45
2018-01-26T09:34:49.049Z,1010.46
2018-01-26T09:35:49.042Z,1010.52
2018-01-26T09:36:49.033Z,1010.51
2018-01-26T09:37:49.021Z,1010.51
2018-01-26T09:38:49.012Z,1010.54
2018-01-26T09:39:48.999Z,1010.51
2018-01-26T09:40:48.996Z,1010.55
2018-01-26T09:41:48.981Z,1010.59
2018-01-26T09:42:48.988Z,1010.58
2018-01-26T09:43:48.967Z,1010.59
2018-01-26T09:44:48.961Z,1010.60
2018-01-26T09:45:48.948Z,1010.59
2018-01-26T09:46:48.938Z,1010.59
2018-01-26T09:47:48.929Z,1010.60
2018-01-26T09:48:48.920Z,1010.68
2018-01-26T09:49:48.911Z,1010.67
2018-01-26T09:50:48.902Z,1010.74
2018-01-26T09:51:48.894Z,1010.74
2018-01-26T09:52:48.886Z,1010.74
2018-01-26T09:53:48.877Z,1010.74
2018-01-26T09:54:48.862Z,1010.72
2018-01-26T09:55:48.864Z,1010.71
2018-01-26T09:56:48.850Z,1010.71
2018-01-26T09:57:48.842Z,1010.76
2018-01-26T09:58:48.831Z,1010.78
2018-01-26T09:59:48.821Z,1010.79
2018-01-26T10:00:48.815Z,1010.81
2018-01-26T10:01:48.802Z,1010.83
2018-01-26T10:02:48.795Z,1010.79
2018-01-26T10:03:48.787Z,1010.85
2018-01-26T10:04:48.779Z,1010.87
2018-01-26T10:05:48.775Z,1010.88
2018-01-26T10:06:48.759Z,1010.90
2018-01-26T10:07:48.752Z,1010.90
2018-01-26T10:08:48.744Z,1010.90
2018-01-26T10:09:48.736Z,1010.87
2018-01-26T10:10:48.724Z,1010.86
2018-01-26T10:11:48.719Z,1010.87
2018-01-26T10:12:48.710Z,1010.90
2018-01-26T10:13:48.699Z,1010.90
2018-01-26T10:14:48.690Z,1010.90
2018-01-26T10:15:48.682Z,1010.92
2018-01-26T10:16:48.671Z,1010.91
2018-01-26T10:17:48.666Z,1010.95
2018-01-26T10:18:48.653Z,1010.92
2018-01-26T10:19:48.646Z,1010.95
2018-01-26T10:20:48.656Z,1010.94
2018-01-26T10:21:48.638Z,1010.96
2018-01-26T10:22:48.621Z,1010.96
2018-01-26T10:23:48.628Z,1010.93
2018-01-26T10:24:48.602Z,1010.90
2018-01-26T10:25:48.596Z,1010.95
2018-01-26T10:26:48.589Z,1010.93
2018-01-26T10:27:48.580Z,1010.92
2018-01-26T10:28:48.576Z,1010.94
2018-01-26T10:29:48.560Z,1010.97
2018-01-26T10:30:48.553Z,1010.95
2018-01-26T10:31:48.545Z,1010.96
2018-01-26T10:32:48.542Z,1011.01
2018-01-26T10:33:48.527Z,1011.02
2018-01-26T10:34:48.519Z,1011.02
2018-01-26T10:35:48.516Z,1011.02
2018-01-26T10:36:48.499Z,1010.99
2018-01-26T10:37:48.498Z,1011.04
2018-01-26T10:38:48.487Z,1010.99
2018-01-26T10:39:48.473Z,1010.99
2018-01-26T10:40:48.478Z,1011.01
2018-01-26T10:41:48.505Z,1011.05
2018-01-26T10:42:48.450Z,1011.04
2018-01-26T10:43:48.443Z,1011.01
2018-01-26T10:44:48.440Z,1011.06
2018-01-26T10:45:48.426Z,1011.10
2018-01-26T10:46:48.419Z,1011.07
2018-01-26T10:47:48.412Z,1011.08
2018-01-26T10:48:48.400Z,1011.13
2018-01-26T10:49:48.396Z,1011.12
2018-01-26T10:50:48.398Z,1011.12
2018-01-26T10:51:48.375Z,1011.09
2018-01-26T10:52:48.366Z,1011.07
2018-01-26T10:53:48.360Z,1011.10
2018-01-26T10:54:48.354Z,1011.08
2018-01-26T10:55:48.346Z,1011.11
2018-01-26T10:56:48.335Z,1011.12
2018-01-26T10:57:48.334Z,1011.13
2018-01-26T10:58:48.323Z,1011.14
2018-01-26T10:59:48.314Z,1011.15
2018-01-26T11:00:48.305Z,1011.20
2018-01-26T11:01:48.297Z,1011.14
2018-01-26T11:02:48.288Z,1011.15
2018-01-26T11:03:48.279Z,1011.17
2018-01-26T11:04:48.277Z,1011.16
2018-01-26T11:05:48.267Z,1011.20
2018-01-26T11:06:48.271Z,1011.19
2018-01-26T11:07:48.248Z,1011.25
2018-01-26T11:08:48.286Z,1011.22
2018-01-26T11:09:48.234Z,1011.26
2018-01-26T11:10:48.222Z,1011.27
2018-01-26T11:11:48.222Z,1011.29
2018-01-26T11:12:48.214Z,1011.26
2018-01-26T11:13:48.202Z,1011.29
2018-01-26T11:14:48.193Z,1011.30
2018-01-26T11:15:48.187Z,1011.31
2018-01-26T11:16:48.182Z,1011.29
2018-01-26T11:17:48.168Z,1011.32
2018-01-26T11:18:48.164Z,1011.32
2018-01-26T11:19:48.155Z,1011.34
2018-01-26T11:20:48.149Z,1011.29
2018-01-26T11:21:48.139Z,1011.36
2018-01-26T11:22:48.132Z,1011.40
2018-01-26T11:23:48.127Z,1011.40
2018-01-26T11:24:48.115Z,1011.42
2018-01-26T11:25:48.103Z,1011.43
2018-01-26T11:26:48.106Z,1011.44
2018-01-26T11:27:48.091Z,1011.44
2018-01-26T11:28:48.084Z,1011.42
2018-01-26T11:29:48.085Z,1011.42
2018-01-26T11:30:48.070Z,1011.36
2018-01-26T11:31:48.059Z,1011.39
2018-01-26T11:32:48.054Z,1011.41
2018-01-26T11:33:48.041Z,1011.39
2018-01-26T11:34:48.038Z,1011.39
2018-01-26T11:35:48.026Z,1011.44
2018-01-26T11:36:48.022Z,1011.40
2018-01-26T11:37:48.027Z,1011.43
2018-01-26T11:38:48.002Z,1011.41
2018-01-26T11:39:47.999Z,1011.46
2018-01-26T11:40:48.001Z,1011.50
2018-01-26T11:41:47.984Z,1011.53
2018-01-26T11:42:47.971Z,1011.52
2018-01-26T11:43:47.985Z,1011.53
2018-01-26T11:44:47.985Z,1011.58
2018-01-26T11:45:47.952Z,1011.57
2018-01-26T11:46:47.941Z,1011.55
2018-01-26T11:47:47.960Z,1011.54
2018-01-26T11:48:47.937Z,1011.52
2018-01-26T11:49:47.927Z,1011.57
2018-01-26T11:50:47.911Z,1011.58
2018-01-26T11:51:47.914Z,1011.61
2018-01-26T11:52:47.900Z,1011.60
2018-01-26T11:53:47.891Z,1011.60
2018-01-26T11:54:47.900Z,1011.60
2018-01-26T11:55:47.869Z,1011.64
2018-01-26T11:56:47.861Z,1011.64
2018-01-26T11:57:47.854Z,1011.62
2018-01-26T11:58:47.843Z,1011.64
2018-01-26T11:59:47.838Z,1011.72
2018-01-26T12:00:47.830Z,1011.72
2018-01-26T12:01:47.829Z,1011.70
2018-01-26T12:02:47.816Z,1011.73
2018-01-26T12:03:47.824Z,1011.75
2018-01-26T12:04:47.808Z,1011.77
2018-01-26T12:05:47.798Z,1011.76
2018-01-26T12:06:47.794Z,1011.80
2018-01-26T12:07:47.774Z,1011.82
2018-01-26T12:08:47.768Z,1011.81
2018-01-26T12:09:47.770Z,1011.79
2018-01-26T12:10:47.750Z,1011.77
2018-01-26T12:11:47.745Z,1011.78
2018-01-26T12:12:47.731Z,1011.77
2018-01-26T12:13:47.731Z,1011.77
2018-01-26T12:14:47.726Z,1011.79
2018-01-26T12:15:47.721Z,1011.75
2018-01-26T12:16:47.707Z,1011.79
2018-01-26T12:17:47.692Z,1011.82
2018-01-26T12:18:47.684Z,1011.84
2018-01-26T12:19:47.681Z,1011.87
2018-01-26T12:20:47.678Z,1011.89
2018-01-26T12:21:47.658Z,1011.89
2018-01-26T12:22:47.668Z,1011.86
2018-01-26T12:23:47.651Z,1011.96
2018-01-26T12:24:47.636Z,1011.92
2018-01-26T12:25:47.629Z,1011.95
2018-01-26T12:26:47.617Z,1011.99
2018-01-26T12:27:47.617Z,1012.02
2018-01-26T12:28:47.610Z,1012.00